createdAt,value
2022-11-21T00:00:34.976Z,11.93
2022-11-21T00:03:18.996Z,10.70
2022-11-21T00:06:34.527Z,10.00
2022-11-21T00:09:16.935Z,11.00
2022-11-21T00:12:11.586Z,10.30
2022-11-21T00:14:40.722Z,10.80
2022-11-21T00:17:11.530Z,11.73
2022-11-21T00:19:44.271Z,11.10
2022-11-21T00:22:20.524Z,11.60
2022-11-21T00:24:54.260Z,12.13
2022-11-21T00:27:31.436Z,11.50
2022-11-21T00:29:58.455Z,12.03
2022-11-21T00:32:45.620Z,12.13
2022-11-21T00:35:28.520Z,12.17
2022-11-21T00:38:01.060Z,12.50
2022-11-21T00:40:35.601Z,10.90
2022-11-21T00:43:03.124Z,10.55
2022-11-21T00:45:36.928Z,11.83
2022-11-21T00:48:17.991Z,12.15
2022-11-21T00:50:51.945Z,10.73
2022-11-21T00:53:20.075Z,12.20
2022-11-21T00:55:56.961Z,11.63
2022-11-21T00:58:27.285Z,10.37
2022-11-21T01:01:18.236Z,11.33
2022-11-21T01:03:46.275Z,11.53
2022-11-21T01:06:14.535Z,10.17
2022-11-21T01:08:54.563Z,10.97
2022-11-21T01:11:32.114Z,11.97
2022-11-21T01:14:16.363Z,10.93
2022-11-21T01:16:51.998Z,11.93
2022-11-21T01:19:39.252Z,12.27
2022-11-21T01:22:24.699Z,10.97
2022-11-21T01:24:52.517Z,11.10
2022-11-21T01:32:54.212Z,10.90
2022-11-21T01:35:28.230Z,11.43
2022-11-21T01:37:58.218Z,12.07
2022-11-21T01:40:34.327Z,11.23
2022-11-21T01:43:21.960Z,10.10
2022-11-21T01:45:56.755Z,11.57
2022-11-21T01:49:05.184Z,10.77
2022-11-21T01:51:59.765Z,10.93
2022-11-21T01:54:32.034Z,11.20
2022-11-21T01:58:07.088Z,11.03
2022-11-21T02:00:39.261Z,10.77
2022-11-21T02:03:46.930Z,11.80
2022-11-21T02:09:16.911Z,11.03
2022-11-21T02:11:52.854Z,11.67
2022-11-21T02:14:19.586Z,10.20
2022-11-21T02:16:46.811Z,12.77
2022-11-21T02:19:43.629Z,11.53
2022-11-21T02:22:16.657Z,11.27
2022-11-21T02:24:46.424Z,12.60
2022-11-21T02:27:13.260Z,10.60
2022-11-21T02:29:40.427Z,12.40
2022-11-21T02:32:07.090Z,11.53
2022-11-21T02:34:33.977Z,13.43
2022-11-21T02:37:02.003Z,11.60
2022-11-21T02:39:36.532Z,11.13
2022-11-21T02:42:30.701Z,11.23
2022-11-21T02:45:18.861Z,12.05
2022-11-21T02:47:45.713Z,12.40
2022-11-21T02:50:19.330Z,11.50
2022-11-21T02:52:46.030Z,12.57
2022-11-21T02:55:13.554Z,11.53
2022-11-21T02:57:40.343Z,11.97
2022-11-21T03:00:08.882Z,12.40
2022-11-21T03:02:35.852Z,10.80
2022-11-21T03:05:03.372Z,11.60
2022-11-21T03:07:30.188Z,12.57
2022-11-21T03:09:57.181Z,11.97
2022-11-21T03:12:23.862Z,12.07
2022-11-21T03:14:50.445Z,11.03
2022-11-21T03:17:17.283Z,13.10
2022-11-21T03:19:43.865Z,11.63
2022-11-21T03:22:13.835Z,11.33
2022-11-21T03:24:40.440Z,11.87
2022-11-21T03:27:07.059Z,13.60
2022-11-21T03:29:33.714Z,11.90
2022-11-21T03:32:00.299Z,13.67
2022-11-21T03:34:27.304Z,12.43
2022-11-21T03:36:54.173Z,12.50
2022-11-21T03:39:20.768Z,12.87
2022-11-21T03:41:47.397Z,11.07
2022-11-21T03:44:14.019Z,11.73
2022-11-21T03:47:02.670Z,11.93
2022-11-21T03:49:29.554Z,10.80
2022-11-21T03:51:56.141Z,11.93
2022-11-21T03:54:23.146Z,11.97
2022-11-21T03:56:49.872Z,12.40
2022-11-21T03:59:16.593Z,10.90
2022-11-21T04:01:43.280Z,12.37
2022-11-21T04:04:10.012Z,13.73
2022-11-21T04:06:36.938Z,11.73
2022-11-21T04:09:03.959Z,11.70
2022-11-21T04:11:30.641Z,10.63
2022-11-21T04:13:59.350Z,12.07
2022-11-21T04:16:25.942Z,12.40
2022-11-21T04:18:52.895Z,12.63
2022-11-21T04:21:19.593Z,11.17
2022-11-21T04:23:46.364Z,11.80
2022-11-21T04:26:12.945Z,11.07
2022-11-21T04:28:39.691Z,11.10
2022-11-21T04:31:10.883Z,11.47
2022-11-21T04:33:40.495Z,12.20
2022-11-21T04:36:08.475Z,11.57
2022-11-21T04:38:38.181Z,11.83
2022-11-21T04:41:05.036Z,12.07
2022-11-21T04:43:31.867Z,12.87
2022-11-21T04:45:58.442Z,11.40
2022-11-21T04:48:25.182Z,13.43
2022-11-21T04:50:51.835Z,11.57
2022-11-21T04:53:19.424Z,11.53
2022-11-21T04:55:46.180Z,11.67
2022-11-21T04:58:12.848Z,12.50
2022-11-21T05:00:39.653Z,11.47
2022-11-21T05:03:07.763Z,11.10
2022-11-21T05:05:34.362Z,11.50
2022-11-21T05:08:01.046Z,11.67
2022-11-21T05:10:27.799Z,11.03
2022-11-21T05:13:19.624Z,11.73
2022-11-21T05:15:46.494Z,9.77
2022-11-21T05:18:13.314Z,9.13
2022-11-21T05:20:39.967Z,10.27
2022-11-21T05:23:06.611Z,11.17
2022-11-21T05:25:33.298Z,10.07
2022-11-21T05:27:59.897Z,11.30
2022-11-21T05:30:26.641Z,11.33
2022-11-21T05:32:53.316Z,11.17
2022-11-21T05:35:22.949Z,10.63
2022-11-21T05:37:55.675Z,10.47
2022-11-21T05:40:22.258Z,9.23
2022-11-21T05:43:07.590Z,10.37
2022-11-21T05:45:36.026Z,10.60
2022-11-21T05:48:02.708Z,8.93
2022-11-21T05:50:29.273Z,9.90
2022-11-21T05:52:55.864Z,9.20
2022-11-21T05:55:22.762Z,10.20
2022-11-21T05:57:49.348Z,10.10
2022-11-21T06:00:16.446Z,9.73
2022-11-21T06:03:01.613Z,10.47
2022-11-21T06:05:28.232Z,10.17
2022-11-21T06:07:54.844Z,9.73
2022-11-21T06:10:21.448Z,10.57
2022-11-21T06:12:48.096Z,9.67
2022-11-21T06:15:14.729Z,9.40
2022-11-21T06:17:41.347Z,8.57
2022-11-21T06:20:08.756Z,10.07
2022-11-21T06:22:35.365Z,11.27
2022-11-21T06:25:01.954Z,11.93
2022-11-21T06:27:29.593Z,9.97
2022-11-21T06:29:56.183Z,9.07
2022-11-21T06:32:22.915Z,9.77
2022-11-21T06:34:50.843Z,10.40
2022-11-21T06:37:17.547Z,9.27
2022-11-21T06:39:44.160Z,10.63
2022-11-21T06:42:10.760Z,10.60
2022-11-21T06:44:37.441Z,10.20
2022-11-21T06:47:04.100Z,10.33
2022-11-21T06:49:30.678Z,9.83
2022-11-21T06:51:57.285Z,10.13
2022-11-21T06:54:23.923Z,10.60
2022-11-21T06:56:52.318Z,9.07
2022-11-21T06:59:18.927Z,10.30
2022-11-21T07:01:45.857Z,8.30
2022-11-21T07:04:12.633Z,8.30
2022-11-21T07:06:39.386Z,9.17
2022-11-21T07:09:31.522Z,10.47
2022-11-21T07:11:52.946Z,10.63
2022-11-21T07:14:19.706Z,10.70
2022-11-21T07:16:46.480Z,8.40
2022-11-21T07:19:13.186Z,9.47
2022-11-21T07:21:39.841Z,9.97
2022-11-21T07:24:06.585Z,11.37
2022-11-21T07:26:33.236Z,11.03
2022-11-21T07:28:59.900Z,9.20
2022-11-21T07:31:26.722Z,9.50
2022-11-21T07:33:53.379Z,9.47
2022-11-21T07:36:19.951Z,9.63
2022-11-21T07:38:46.922Z,9.17
2022-11-21T07:41:13.611Z,9.80
2022-11-21T07:43:40.255Z,10.77
2022-11-21T07:46:06.869Z,10.17
2022-11-21T07:48:33.492Z,10.57
2022-11-21T07:51:03.754Z,10.43
2022-11-21T07:53:30.546Z,10.77
2022-11-21T07:55:59.052Z,10.63
2022-11-21T07:58:25.762Z,10.53
2022-11-21T08:00:53.517Z,9.80
2022-11-21T08:03:20.120Z,9.90
2022-11-21T08:05:47.146Z,9.23
2022-11-21T08:08:14.202Z,9.07
2022-11-21T08:10:43.039Z,11.23
2022-11-21T08:13:09.906Z,10.67
2022-11-21T08:15:36.948Z,11.20
2022-11-21T08:18:10.198Z,10.80
2022-11-21T08:20:36.817Z,9.63
2022-11-21T08:23:03.562Z,11.23
2022-11-21T08:25:30.505Z,9.00
2022-11-21T08:27:57.611Z,12.33
2022-11-21T08:30:24.222Z,10.20
2022-11-21T08:32:51.085Z,10.83
2022-11-21T08:35:17.656Z,9.97
2022-11-21T08:37:44.272Z,10.30
2022-11-21T08:40:11.184Z,11.20
2022-11-21T08:42:38.145Z,11.03
2022-11-21T08:45:05.607Z,10.03
2022-11-21T08:47:35.449Z,9.37
2022-11-21T08:50:07.350Z,9.63
2022-11-21T08:52:35.677Z,9.82
2022-11-21T08:55:02.298Z,10.50
2022-11-21T08:57:28.923Z,12.37
2022-11-21T08:59:55.521Z,11.87
2022-11-21T09:02:22.315Z,11.67
2022-11-21T09:04:49.369Z,10.33
2022-11-21T09:07:16.085Z,8.73
2022-11-21T09:09:42.654Z,11.50
2022-11-21T09:12:09.244Z,10.87
2022-11-21T09:14:54.473Z,8.90
2022-11-21T09:17:39.870Z,7.13
2022-11-21T09:20:06.883Z,7.57
2022-11-21T09:22:33.552Z,7.33
2022-11-21T09:25:00.277Z,7.03
2022-11-21T09:27:26.890Z,7.63
2022-11-21T09:29:54.360Z,8.70
2022-11-21T09:32:21.742Z,7.90
2022-11-21T09:34:48.558Z,8.20
2022-11-21T09:37:15.347Z,9.07
2022-11-21T09:39:41.992Z,8.33
2022-11-21T09:42:25.798Z,7.87
2022-11-21T09:45:06.148Z,7.90
2022-11-21T09:47:43.614Z,7.27
2022-11-21T09:50:13.177Z,7.60
2022-11-21T09:53:00.593Z,7.70
2022-11-21T09:55:49.185Z,7.83
2022-11-21T09:58:35.884Z,6.97
2022-11-21T10:01:02.798Z,6.97
2022-11-21T10:03:33.541Z,6.90
2022-11-21T10:06:11.737Z,7.83
2022-11-21T10:08:45.681Z,8.03
2022-11-21T10:12:10.205Z,7.43
2022-11-21T10:15:06.884Z,8.13
2022-11-21T10:17:56.144Z,9.10
2022-11-21T10:20:48.439Z,7.50
2022-11-21T10:23:43.202Z,7.57
2022-11-21T10:26:17.318Z,6.50
2022-11-21T10:28:50.673Z,7.03
2022-11-21T10:31:17.718Z,6.97
2022-11-21T10:33:44.326Z,7.50
2022-11-21T10:36:20.800Z,7.63
2022-11-21T10:38:50.217Z,8.87
2022-11-21T10:41:47.374Z,7.27
2022-11-21T10:44:48.764Z,6.73
2022-11-21T10:47:30.111Z,7.80
2022-11-21T10:50:05.525Z,7.63
2022-11-21T10:52:36.110Z,7.00
2022-11-21T10:55:02.628Z,7.60
2022-11-21T10:57:31.857Z,8.53
2022-11-21T11:00:01.440Z,7.63
2022-11-21T11:02:28.289Z,8.47
2022-11-21T11:05:17.512Z,7.63
2022-11-21T11:08:06.242Z,12.10
2022-11-21T11:11:06.748Z,11.33
2022-11-21T11:13:51.687Z,8.07
2022-11-21T11:16:21.410Z,10.40
2022-11-21T11:19:29.863Z,8.27
2022-11-21T11:21:59.475Z,7.20
2022-11-21T11:24:27.485Z,8.00
2022-11-21T11:27:01.379Z,11.53
2022-11-21T11:29:34.573Z,16.98
2022-11-21T11:32:21.262Z,25.63
2022-11-21T11:35:09.078Z,46.37
2022-11-21T11:37:40.703Z,29.03
2022-11-21T11:40:26.896Z,9.33
2022-11-21T11:43:43.387Z,11.53
2022-11-21T11:46:49.979Z,10.80
2022-11-21T11:50:00.755Z,8.90
2022-11-21T11:52:35.122Z,8.10
2022-11-21T11:55:16.032Z,8.23
2022-11-21T11:57:43.342Z,6.60
2022-11-21T12:00:27.770Z,7.63
2022-11-21T12:03:00.872Z,9.25
2022-11-21T12:05:28.644Z,7.70
2022-11-21T12:11:24.797Z,19.20
2022-11-21T12:13:53.127Z,11.45
2022-11-21T12:16:20.031Z,5.97
2022-11-21T12:18:56.575Z,6.63
2022-11-21T12:21:23.598Z,5.20
2022-11-21T12:23:57.806Z,6.17
2022-11-21T12:26:30.695Z,6.05
2022-11-21T12:29:24.288Z,6.43
2022-11-21T12:31:59.764Z,7.30
2022-11-21T12:34:43.302Z,6.90
2022-11-21T12:37:22.047Z,7.40
2022-11-21T12:40:34.102Z,5.77
2022-11-21T12:43:38.368Z,6.93
2022-11-21T12:46:28.723Z,6.33
2022-11-21T12:49:43.222Z,6.37
2022-11-21T12:52:54.029Z,6.50
2022-11-21T12:55:40.070Z,7.33
2022-11-21T12:58:19.392Z,7.57
2022-11-21T13:00:52.879Z,6.60
2022-11-21T13:03:33.457Z,6.03
2022-11-21T13:06:01.963Z,6.97
2022-11-21T13:08:30.755Z,6.27
2022-11-21T13:11:26.081Z,6.77
2022-11-21T13:14:01.884Z,5.93
2022-11-21T13:16:38.037Z,5.83
2022-11-21T13:19:16.309Z,6.47
2022-11-21T13:21:47.956Z,6.97
2022-11-21T13:24:47.042Z,7.57
2022-11-21T13:27:39.371Z,7.07
2022-11-21T13:30:09.466Z,5.87
2022-11-21T13:32:55.728Z,7.03
2022-11-21T13:35:22.245Z,6.97
2022-11-21T13:37:51.845Z,5.93
2022-11-21T13:40:27.903Z,6.43
2022-11-21T13:45:59.279Z,7.20
2022-11-21T13:48:30.559Z,6.33
2022-11-21T13:51:10.014Z,6.13
2022-11-21T13:53:39.572Z,7.00
2022-11-21T13:56:25.952Z,6.73
2022-11-21T13:59:05.238Z,6.43
2022-11-21T14:01:43.899Z,6.53
2022-11-21T14:04:44.674Z,7.00
2022-11-21T14:07:32.122Z,6.37
2022-11-21T14:10:01.141Z,7.10
2022-11-21T14:12:33.837Z,6.50
2022-11-21T14:17:54.360Z,6.97
2022-11-21T14:20:24.487Z,6.27
2022-11-21T14:22:58.842Z,5.53
2022-11-21T14:28:15.449Z,5.90
2022-11-21T14:30:44.076Z,6.43
2022-11-21T14:33:39.355Z,6.73
2022-11-21T14:36:16.319Z,8.57
2022-11-21T14:38:44.478Z,9.73
2022-11-21T14:41:26.205Z,9.27
2022-11-21T14:43:58.982Z,8.40
2022-11-21T14:46:36.963Z,7.50
2022-11-21T14:49:29.997Z,7.33
2022-11-21T14:52:15.889Z,7.23
2022-11-21T14:55:29.205Z,6.83
2022-11-21T14:57:42.818Z,7.23
2022-11-21T15:00:36.130Z,6.50
2022-11-21T15:03:03.595Z,7.30
2022-11-21T15:06:00.747Z,7.73
2022-11-21T15:11:17.997Z,6.87
2022-11-21T15:16:34.841Z,7.63
2022-11-21T15:19:01.544Z,7.53
2022-11-21T15:21:28.166Z,7.10
2022-11-21T15:23:55.765Z,7.13
2022-11-21T15:26:33.391Z,8.63
2022-11-21T15:29:00.780Z,9.03
2022-11-21T15:31:27.618Z,7.97
2022-11-21T15:37:03.612Z,8.17
2022-11-21T15:39:30.926Z,8.02
2022-11-21T15:42:32.534Z,6.73
2022-11-21T15:45:06.595Z,8.27
2022-11-21T15:47:33.201Z,6.70
2022-11-21T15:49:59.779Z,7.20
2022-11-21T15:52:26.452Z,8.70
2022-11-21T15:54:53.105Z,7.60
2022-11-21T15:59:53.082Z,7.40
2022-11-21T16:02:19.984Z,7.93
2022-11-21T16:04:46.701Z,8.03
2022-11-21T16:07:13.364Z,9.13
2022-11-21T16:09:42.093Z,8.07
2022-11-21T16:12:09.273Z,7.47
2022-11-21T16:14:35.929Z,8.50
2022-11-21T16:17:02.691Z,9.43
2022-11-21T16:19:29.515Z,10.97
2022-11-21T16:21:56.345Z,9.40
2022-11-21T16:24:23.124Z,9.43
2022-11-21T16:26:53.437Z,7.57
2022-11-21T16:29:20.289Z,9.13
2022-11-21T16:31:47.072Z,10.03
2022-11-21T16:34:18.665Z,10.70
2022-11-21T16:36:45.444Z,12.67
2022-11-21T16:39:17.735Z,12.00
2022-11-21T16:41:46.563Z,12.00
2022-11-21T16:44:14.405Z,10.50
2022-11-21T16:46:47.198Z,8.83
2022-11-21T16:49:13.965Z,9.47
2022-11-21T16:51:40.829Z,11.17
2022-11-21T16:54:09.463Z,8.93
2022-11-21T16:56:36.468Z,9.67
2022-11-21T16:59:03.195Z,8.97
2022-11-21T17:01:29.949Z,9.03
2022-11-21T17:03:56.801Z,9.07
2022-11-21T17:06:27.220Z,8.50
2022-11-21T17:08:53.913Z,9.43
2022-11-21T17:11:22.776Z,8.37
2022-11-21T17:13:50.896Z,8.07
2022-11-21T17:16:20.026Z,9.57
2022-11-21T17:18:47.137Z,9.77
2022-11-21T17:21:15.876Z,9.00
2022-11-21T17:23:44.139Z,9.53
2022-11-21T17:26:12.955Z,9.47
2022-11-21T17:28:45.022Z,9.80
2022-11-21T17:31:14.417Z,8.30
2022-11-21T17:33:41.616Z,9.17
2022-11-21T17:36:12.587Z,9.13
2022-11-21T17:38:39.930Z,9.87
2022-11-21T17:41:08.400Z,11.87
2022-11-21T17:43:35.040Z,10.20
2022-11-21T17:46:09.093Z,10.67
2022-11-21T17:48:36.780Z,12.03
2022-11-21T17:51:09.457Z,12.97
2022-11-21T17:53:38.229Z,11.23
2022-11-21T17:56:06.709Z,10.27
2022-11-21T17:58:33.742Z,12.10
2022-11-21T18:01:04.946Z,19.27
2022-11-21T18:03:31.804Z,12.80
2022-11-21T18:06:05.683Z,10.53
2022-11-21T18:08:33.617Z,12.65
2022-11-21T18:11:00.543Z,10.73
2022-11-21T18:13:29.142Z,11.00
2022-11-21T18:15:56.196Z,11.80
2022-11-21T18:18:22.974Z,12.53
2022-11-21T18:20:51.341Z,12.60
2022-11-21T18:23:18.078Z,11.63
2022-11-21T18:25:44.732Z,13.10
2022-11-21T18:28:11.422Z,13.17
2022-11-21T18:30:38.045Z,11.77
2022-11-21T18:33:04.754Z,12.93
2022-11-21T18:35:31.437Z,13.70
2022-11-21T18:37:58.104Z,14.40
2022-11-21T18:40:24.736Z,16.47
2022-11-21T18:42:51.742Z,14.37
2022-11-21T18:45:18.447Z,32.77
2022-11-21T18:47:47.891Z,19.87
2022-11-21T18:50:15.798Z,24.50
2022-11-21T18:52:46.650Z,23.30
2022-11-21T18:55:13.646Z,14.20
2022-11-21T18:57:40.385Z,17.83
2022-11-21T19:00:07.596Z,15.90
2022-11-21T19:02:34.189Z,14.70
2022-11-21T19:05:00.800Z,15.90
2022-11-21T19:07:27.470Z,14.73
2022-11-21T19:09:54.073Z,14.33
2022-11-21T19:12:20.710Z,16.60
2022-11-21T19:14:47.350Z,13.30
2022-11-21T19:17:13.933Z,13.77
2022-11-21T19:19:40.585Z,13.07
2022-11-21T19:22:07.445Z,13.53
2022-11-21T19:24:34.013Z,13.07
2022-11-21T19:27:00.681Z,13.90
2022-11-21T19:29:27.625Z,14.37
2022-11-21T19:31:55.997Z,12.53
2022-11-21T19:34:22.614Z,14.03
2022-11-21T19:36:49.377Z,12.50
2022-11-21T19:39:17.566Z,12.93
2022-11-21T19:41:44.244Z,12.93
2022-11-21T19:44:11.559Z,14.03
2022-11-21T19:46:39.565Z,16.20
2022-11-21T19:49:07.537Z,15.17
2022-11-21T19:51:39.602Z,13.90
2022-11-21T19:54:07.344Z,12.37
2022-11-21T19:56:34.482Z,12.97
2022-11-21T19:59:01.111Z,15.30
2022-11-21T20:01:29.809Z,13.87
2022-11-21T20:04:02.650Z,13.67
2022-11-21T20:06:33.052Z,12.73
2022-11-21T20:09:11.073Z,13.40
2022-11-21T20:11:39.821Z,12.43
2022-11-21T20:14:06.565Z,12.80
2022-11-21T20:16:38.522Z,14.67
2022-11-21T20:19:07.963Z,12.97
2022-11-21T20:21:34.801Z,14.07
2022-11-21T20:24:01.634Z,12.57
2022-11-21T20:26:28.500Z,13.47
2022-11-21T20:28:55.186Z,13.23
2022-11-21T20:31:24.905Z,11.87
2022-11-21T20:33:53.854Z,12.23
2022-11-21T20:36:22.672Z,12.23
2022-11-21T20:38:54.557Z,13.30
2022-11-21T20:41:23.226Z,11.20
2022-11-21T20:46:41.277Z,11.00
2022-11-21T20:49:07.908Z,12.40
2022-11-21T20:53:01.018Z,10.87
2022-11-21T20:54:21.385Z,11.13
2022-11-21T20:56:49.041Z,10.63
2022-11-21T20:59:15.850Z,12.00
2022-11-21T21:01:45.695Z,11.43
2022-11-21T21:04:12.360Z,10.97
2022-11-21T21:06:39.738Z,9.93
2022-11-21T21:09:06.453Z,10.00
2022-11-21T21:11:52.921Z,11.20
2022-11-21T21:14:21.416Z,10.60
2022-11-21T21:16:51.396Z,10.50
2022-11-21T21:19:18.367Z,11.30
2022-11-21T21:21:45.222Z,12.13
2022-11-21T21:24:12.933Z,11.50
2022-11-21T21:26:43.375Z,11.03
2022-11-21T21:29:17.824Z,11.03
2022-11-21T21:31:50.568Z,9.57
2022-11-21T21:34:18.212Z,10.77
2022-11-21T21:36:44.825Z,10.23
2022-11-21T21:39:11.439Z,11.37
2022-11-21T21:41:40.080Z,11.13
2022-11-21T21:44:07.540Z,10.87
2022-11-21T21:46:37.425Z,11.73
2022-11-21T21:49:04.178Z,10.13
2022-11-21T21:51:32.048Z,10.83
2022-11-21T21:53:59.791Z,11.33
2022-11-21T21:56:28.052Z,10.70
2022-11-21T21:59:00.087Z,11.00
2022-11-21T22:01:31.837Z,10.90
2022-11-21T22:04:00.547Z,11.77
2022-11-21T22:06:31.596Z,10.73
2022-11-21T22:08:58.298Z,12.67
2022-11-21T22:11:28.728Z,11.97
2022-11-21T22:13:57.420Z,11.27
2022-11-21T22:16:24.610Z,11.00
2022-11-21T22:18:51.713Z,11.63
2022-11-21T22:21:20.821Z,12.07
2022-11-21T22:24:09.763Z,10.93
2022-11-21T22:26:34.912Z,10.87
2022-11-21T22:29:01.650Z,9.50
2022-11-21T22:31:30.697Z,11.00
2022-11-21T22:33:57.717Z,10.73
2022-11-21T22:36:24.420Z,10.90
2022-11-21T22:38:55.197Z,10.60
2022-11-21T22:41:23.733Z,10.80
2022-11-21T22:43:55.202Z,10.30
2022-11-21T22:46:22.465Z,10.83
2022-11-21T22:48:49.087Z,9.50
2022-11-21T22:51:18.897Z,11.37
2022-11-21T22:53:47.307Z,11.07
2022-11-21T22:56:19.852Z,11.37
2022-11-21T22:58:47.114Z,11.60
2022-11-21T23:01:15.966Z,11.47
2022-11-21T23:03:44.182Z,11.03
2022-11-21T23:06:16.175Z,12.77
2022-11-21T23:08:43.444Z,12.80
2022-11-21T23:11:15.958Z,12.87
2022-11-21T23:13:44.084Z,13.60
2022-11-21T23:16:11.298Z,12.67
2022-11-21T23:18:38.086Z,13.20
2022-11-21T23:21:08.888Z,12.97
2022-11-21T23:23:35.781Z,13.23
2022-11-21T23:26:02.644Z,13.57
2022-11-21T23:28:29.812Z,14.07
2022-11-21T23:30:56.780Z,12.07
2022-11-21T23:33:23.815Z,14.13
2022-11-21T23:35:50.718Z,13.00
2022-11-21T23:38:17.941Z,13.77
2022-11-21T23:40:48.529Z,12.93
2022-11-21T23:43:16.000Z,13.53
2022-11-21T23:45:42.760Z,14.50
2022-11-21T23:48:09.772Z,15.03
2022-11-21T23:50:36.652Z,13.50
2022-11-21T23:53:03.594Z,14.67
2022-11-21T23:55:30.417Z,14.20
2022-11-21T23:57:57.353Z,14.60
